Time;durP1;ratioP1;P1;durP2;ratioP2;P2;SDS_P1;SDS_P2;PMS_P1;PMS_P2;Temp;Humidity;BMP_temperature;BMP_pressure;BME280_temperature;BME280_humidity;BME280_pressure;Samples;Min_cycle;Max_cycle;Signal;HPM_P1;HPM_P2
2023/05/14 00:01:42;;;;;;;2.05;1.70;;;13.60;99.90;;;;;;5113351;28;20492;-57
2023/05/14 00:04:10;;;;;;;2.22;1.92;;;13.60;99.90;;;;;;5112921;28;20847;-58
2023/05/14 00:06:37;;;;;;;2.10;1.70;;;13.60;99.90;;;;;;5111921;28;20446;-56
2023/05/14 00:09:04;;;;;;;3.77;2.07;;;13.50;99.90;;;;;;5113210;28;20424;-56
2023/05/14 00:11:31;;;;;;;2.08;1.88;;;13.50;99.90;;;;;;5114686;28;20505;-56
2023/05/14 00:13:59;;;;;;;2.00;1.60;;;13.50;99.90;;;;;;5113731;28;20481;-55
2023/05/14 00:16:26;;;;;;;2.20;1.87;;;13.60;99.90;;;;;;5113668;28;20431;-57
2023/05/14 00:18:53;;;;;;;3.95;1.80;;;13.70;99.90;;;;;;5112644;28;20480;-56
2023/05/14 00:21:21;;;;;;;2.10;1.70;;;13.70;99.90;;;;;;5115029;28;20852;-57
2023/05/14 00:23:48;;;;;;;2.80;1.80;;;13.70;99.90;;;;;;5114412;28;20442;-55
2023/05/14 00:26:15;;;;;;;2.00;1.80;;;13.70;99.90;;;;;;5114490;28;20433;-57
2023/05/14 00:28:42;;;;;;;2.40;1.90;;;13.70;99.90;;;;;;5113749;28;20412;-58
2023/05/14 00:31:09;;;;;;;2.30;1.90;;;13.80;99.90;;;;;;5114530;28;20423;-55
2023/05/14 00:33:36;;;;;;;2.63;1.92;;;13.80;99.90;;;;;;5115012;28;20416;-57
2023/05/14 00:36:03;;;;;;;2.30;1.90;;;13.80;99.90;;;;;;5114482;28;20424;-54
2023/05/14 00:38:32;;;;;;;2.15;1.70;;;13.80;99.90;;;;;;5114094;28;20456;-58
2023/05/14 00:40:59;;;;;;;1.70;1.50;;;13.70;99.90;;;;;;5115367;28;20839;-57
2023/05/14 00:43:26;;;;;;;2.50;2.00;;;13.70;99.90;;;;;;5115115;28;20416;-56
2023/05/14 00:45:54;;;;;;;2.10;1.60;;;13.80;99.90;;;;;;5115231;28;20424;-58
2023/05/14 00:48:22;;;;;;;2.10;1.67;;;13.80;99.90;;;;;;5114508;28;20427;-57
2023/05/14 00:50:50;;;;;;;2.05;1.52;;;13.80;99.90;;;;;;5115095;28;20436;-55
2023/05/14 00:53:18;;;;;;;2.38;2.00;;;13.70;99.90;;;;;;5115350;28;20465;-58
2023/05/14 00:55:48;;;;;;;2.30;1.60;;;13.70;99.90;;;;;;5115189;28;20572;-56
2023/05/14 00:58:15;;;;;;;2.30;1.70;;;13.80;99.90;;;;;;5115233;28;20890;-56
2023/05/14 01:00:42;;;;;;;1.90;1.50;;;13.80;99.90;;;;;;5115284;28;20415;-58
2023/05/14 01:03:09;;;;;;;2.58;1.83;;;13.80;99.90;;;;;;5113966;28;20428;-54
2023/05/14 01:05:51;;;;;;;3.58;2.30;;;13.70;99.90;;;;;;5114455;28;20416;-57
2023/05/14 01:08:27;;;;;;;2.13;1.70;;;13.50;99.90;;;;;;5114711;28;20423;-58
2023/05/14 01:11:03;;;;;;;2.30;1.70;;;13.50;94.20;;;;;;5115114;28;20439;-58
2023/05/14 01:13:38;;;;;;;2.38;2.08;;;13.60;99.90;;;;;;5115200;28;20482;-58
2023/05/14 01:16:09;;;;;;;2.50;2.30;;;13.50;99.90;;;;;;5115478;28;20424;-57
2023/05/14 01:18:36;;;;;;;2.08;1.88;;;13.40;99.90;;;;;;5114743;28;20432;-56
2023/05/14 01:21:03;;;;;;;2.40;2.00;;;13.40;99.90;;;;;;5115078;28;20427;-57
2023/05/14 01:23:31;;;;;;;2.50;2.10;;;13.20;99.90;;;;;;5114724;28;20420;-56
2023/05/14 01:25:58;;;;;;;2.65;2.17;;;13.00;99.90;;;;;;5114995;28;20763;-58
2023/05/14 01:28:32;;;;;;;3.50;2.60;;;12.90;99.90;;;;;;5114964;28;20417;-58
2023/05/14 01:31:06;;;;;;;2.30;1.90;;;12.80;99.90;;;;;;5114872;28;20542;-57
2023/05/14 01:33:35;;;;;;;3.50;1.92;;;12.80;99.90;;;;;;5114583;28;20405;-54
2023/05/14 01:36:02;;;;;;;2.50;2.13;;;12.90;99.90;;;;;;5115193;28;20862;-57
2023/05/14 01:38:33;;;;;;;2.80;2.60;;;12.90;99.90;;;;;;5114627;28;20851;-55
2023/05/14 01:41:00;;;;;;;4.65;2.90;;;13.00;99.90;;;;;;5114482;28;20823;-58
2023/05/14 01:43:28;;;;;;;2.60;2.00;;;12.90;99.90;;;;;;5114152;28;20411;-56
2023/05/14 01:45:55;;;;;;;2.72;2.13;;;12.90;99.90;;;;;;5113815;28;20431;-57
2023/05/14 01:48:22;;;;;;;2.30;1.92;;;12.90;99.90;;;;;;5114399;28;20486;-57
2023/05/14 01:50:50;;;;;;;2.30;2.00;;;12.90;99.90;;;;;;5113624;28;20432;-58
2023/05/14 01:53:17;;;;;;;3.40;2.25;;;13.00;99.90;;;;;;5111977;28;20460;-58
2023/05/14 01:55:45;;;;;;;3.40;2.50;;;13.00;99.90;;;;;;5111302;28;20412;-56
2023/05/14 01:58:12;;;;;;;3.75;2.80;;;12.80;99.90;;;;;;5112031;28;20408;-57
2023/05/14 02:00:39;;;;;;;3.15;2.40;;;12.70;99.90;;;;;;5111690;28;20416;-58
2023/05/14 02:03:06;;;;;;;2.50;2.20;;;12.70;99.90;;;;;;5112857;28;20432;-56
2023/05/14 02:05:33;;;;;;;3.30;2.60;;;12.70;99.90;;;;;;5112887;28;20412;-57
2023/05/14 02:08:00;;;;;;;3.20;2.58;;;12.50;99.90;;;;;;5111687;28;20407;-56
2023/05/14 02:10:27;;;;;;;2.90;2.60;;;12.50;99.90;;;;;;5111839;28;20709;-56
2023/05/14 02:12:56;;;;;;;2.97;2.17;;;12.50;99.90;;;;;;5112645;28;20420;-58
2023/05/14 02:15:23;;;;;;;3.10;2.43;;;12.50;99.90;;;;;;5116381;28;20859;-56
2023/05/14 02:17:50;;;;;;;2.60;2.40;;;12.50;99.90;;;;;;5118056;28;20423;-56
2023/05/14 02:20:17;;;;;;;2.70;2.50;;;12.50;99.90;;;;;;5117829;28;20412;-56
2023/05/14 02:22:45;;;;;;;2.47;2.13;;;12.60;99.90;;;;;;5118707;28;20792;-57
2023/05/14 02:25:12;;;;;;;3.28;2.63;;;12.70;99.90;;;;;;5119017;28;20423;-57
2023/05/14 02:27:39;;;;;;;3.40;2.90;;;12.60;99.90;;;;;;5118209;28;20701;-55
2023/05/14 02:30:10;;;;;;;3.40;2.70;;;12.70;99.90;;;;;;5118039;28;20435;-56
2023/05/14 02:32:37;;;;;;;3.72;2.67;;;12.70;99.90;;;;;;5118436;28;20423;-56
2023/05/14 02:35:04;;;;;;;3.72;2.80;;;12.70;99.90;;;;;;5117822;28;20827;-56
2023/05/14 02:37:31;;;;;;;2.90;2.40;;;12.70;99.90;;;;;;5117751;28;20446;-58
2023/05/14 02:39:58;;;;;;;3.15;2.20;;;12.80;99.90;;;;;;5118244;28;20408;-55
2023/05/14 02:42:25;;;;;;;2.80;2.10;;;12.80;99.90;;;;;;5118513;28;20433;-58
2023/05/14 02:44:53;;;;;;;2.60;2.20;;;12.80;99.90;;;;;;5117253;28;20499;-55
2023/05/14 02:47:21;;;;;;;1.80;1.60;;;12.70;99.90;;;;;;5117962;28;20428;-55
2023/05/14 02:49:48;;;;;;;3.67;2.40;;;12.70;99.90;;;;;;5117758;28;20432;-57
2023/05/14 02:52:15;;;;;;;2.40;2.20;;;12.70;99.90;;;;;;5117748;28;20456;-56
2023/05/14 02:54:42;;;;;;;2.78;2.03;;;12.70;99.90;;;;;;5117831;28;20416;-57
2023/05/14 02:57:10;;;;;;;2.80;2.30;;;12.80;99.90;;;;;;5117424;28;20514;-58
2023/05/14 02:59:37;;;;;;;3.20;2.25;;;12.90;99.90;;;;;;5116788;28;20832;-57
2023/05/14 03:02:04;;;;;;;3.53;1.90;;;13.00;99.90;;;;;;5116718;28;20477;-58
2023/05/14 03:04:32;;;;;;;2.47;1.80;;;13.00;99.90;;;;;;5116721;28;20429;-55
2023/05/14 03:06:59;;;;;;;2.58;1.92;;;12.90;99.90;;;;;;5117660;28;20435;-57
2023/05/14 03:09:26;;;;;;;2.60;1.83;;;13.00;99.90;;;;;;5116132;28;20420;-55
2023/05/14 03:11:53;;;;;;;2.73;2.00;;;13.00;99.90;;;;;;5114525;28;20431;-57
2023/05/14 03:14:20;;;;;;;3.43;2.40;;;13.00;99.90;;;;;;5114419;28;20720;-57
2023/05/14 03:16:47;;;;;;;2.20;1.85;;;12.90;99.90;;;;;;5114737;28;20424;-57
2023/05/14 03:19:14;;;;;;;2.40;2.08;;;12.90;99.90;;;;;;5114893;28;20707;-57
2023/05/14 03:21:43;;;;;;;2.58;2.38;;;12.80;99.90;;;;;;5114328;28;20424;-58
2023/05/14 03:24:10;;;;;;;2.60;2.35;;;12.60;99.90;;;;;;5114028;28;20434;-57
2023/05/14 03:26:37;;;;;;;3.33;2.35;;;12.60;99.90;;;;;;5115278;28;20833;-56
2023/05/14 03:29:04;;;;;;;2.80;2.00;;;12.60;99.90;;;;;;5115723;28;20502;-58
2023/05/14 03:31:31;;;;;;;2.65;2.10;;;12.80;99.90;;;;;;5115748;28;20435;-58
2023/05/14 03:33:58;;;;;;;4.57;2.40;;;12.80;99.90;;;;;;5116688;28;20508;-57
2023/05/14 03:36:25;;;;;;;2.45;2.10;;;12.80;99.90;;;;;;5117055;28;20420;-56
2023/05/14 03:38:54;;;;;;;3.30;2.17;;;12.80;99.90;;;;;;5116840;28;20872;-56
2023/05/14 03:41:21;;;;;;;3.05;1.90;;;12.90;99.90;;;;;;5115452;28;20823;-57
2023/05/14 03:43:48;;;;;;;2.90;2.50;;;12.70;99.90;;;;;;5116732;28;20431;-57
2023/05/14 03:46:15;;;;;;;2.60;2.40;;;12.50;99.90;;;;;;5116427;28;20428;-59
2023/05/14 03:48:42;;;;;;;3.03;2.40;;;12.40;99.90;;;;;;5115962;28;20421;-57
2023/05/14 03:51:09;;;;;;;4.45;2.70;;;12.40;99.90;;;;;;5116236;28;20436;-57
2023/05/14 03:53:36;;;;;;;3.00;2.60;;;12.40;99.90;;;;;;5116526;28;20420;-57
2023/05/14 03:56:05;;;;;;;3.40;2.33;;;12.40;99.90;;;;;;5115855;28;20734;-56
2023/05/14 03:58:32;;;;;;;3.67;2.80;;;12.50;99.90;;;;;;5116076;28;20473;-57
2023/05/14 04:01:00;;;;;;;3.20;2.80;;;12.70;99.90;;;;;;5116175;28;20431;-59
2023/05/14 04:03:27;;;;;;;2.60;2.15;;;12.80;99.90;;;;;;5116488;28;20424;-58
2023/05/14 04:05:54;;;;;;;3.50;2.70;;;12.90;99.90;;;;;;5115790;28;20427;-57
2023/05/14 04:08:21;;;;;;;4.30;2.50;;;12.90;99.90;;;;;;5113705;28;20888;-57
2023/05/14 04:10:50;;;;;;;3.63;2.38;;;13.00;99.90;;;;;;5114057;28;20439;-57
2023/05/14 04:13:18;;;;;;;3.10;2.10;;;12.80;99.90;;;;;;5114868;28;20420;-56
2023/05/14 04:15:45;;;;;;;3.95;3.00;;;12.80;99.90;;;;;;5114706;28;20424;-56
2023/05/14 04:18:12;;;;;;;2.40;2.10;;;12.70;99.90;;;;;;5114312;28;20446;-57
2023/05/14 04:20:39;;;;;;;2.40;1.80;;;12.80;99.90;;;;;;5112161;28;20770;-57
2023/05/14 04:23:06;;;;;;;3.08;2.05;;;12.80;99.90;;;;;;5113067;28;20523;-57
2023/05/14 04:25:33;;;;;;;1.85;1.65;;;12.80;99.90;;;;;;5113407;28;20416;-57
2023/05/14 04:28:00;;;;;;;2.35;2.15;;;12.90;99.90;;;;;;5114212;28;20730;-57
2023/05/14 04:30:29;;;;;;;3.10;2.05;;;12.90;99.90;;;;;;5114300;28;20432;-57
2023/05/14 04:32:56;;;;;;;5.03;2.00;;;12.80;99.90;;;;;;5114722;28;20472;-57
2023/05/14 04:35:23;;;;;;;3.53;1.92;;;12.80;99.90;;;;;;5115893;28;20420;-57
2023/05/14 04:37:59;;;;;;;2.72;1.90;;;12.70;99.90;;;;;;5114778;28;20720;-58
2023/05/14 04:40:26;;;;;;;2.58;2.30;;;12.70;99.90;;;;;;5115651;28;20412;-55
2023/05/14 04:42:53;;;;;;;3.30;2.70;;;12.70;99.90;;;;;;5115194;28;20851;-58
2023/05/14 04:45:20;;;;;;;3.45;2.30;;;12.70;99.90;;;;;;5115113;28;20423;-57
2023/05/14 04:47:50;;;;;;;2.67;2.13;;;12.70;99.90;;;;;;5115806;28;20436;-57
2023/05/14 04:50:17;;;;;;;2.30;1.90;;;12.50;99.90;;;;;;5115487;28;20427;-59
2023/05/14 04:52:44;;;;;;;2.33;1.92;;;12.60;99.90;;;;;;5115997;28;20427;-58
2023/05/14 04:55:11;;;;;;;2.60;2.22;;;12.70;99.90;;;;;;5115336;28;20781;-58
2023/05/14 04:57:38;;;;;;;1.90;1.50;;;12.80;99.90;;;;;;5115576;28;20420;-56
2023/05/14 05:00:06;;;;;;;3.75;2.00;;;12.90;99.90;;;;;;5115175;28;20582;-58
2023/05/14 05:02:34;;;;;;;2.35;2.03;;;12.90;99.90;;;;;;5115134;28;20480;-58
2023/05/14 05:05:03;;;;;;;3.17;2.20;;;12.90;99.90;;;;;;5115267;28;20419;-56
2023/05/14 05:07:30;;;;;;;3.70;2.00;;;12.80;99.90;;;;;;5115313;28;20455;-55
2023/05/14 05:09:57;;;;;;;2.38;2.08;;;12.80;99.90;;;;;;5115393;28;20417;-58
2023/05/14 05:12:24;;;;;;;2.60;1.90;;;12.70;99.90;;;;;;5115500;28;20444;-57
2023/05/14 05:14:51;;;;;;;2.55;1.85;;;12.70;99.90;;;;;;5115590;28;20424;-57
2023/05/14 05:17:18;;;;;;;2.65;1.90;;;12.50;99.90;;;;;;5114802;28;20878;-56
2023/05/14 05:19:45;;;;;;;2.33;2.13;;;12.50;99.90;;;;;;5114639;28;20420;-57
2023/05/14 05:22:14;;;;;;;2.30;1.70;;;12.50;99.90;;;;;;5115338;28;20803;-57
2023/05/14 05:24:41;;;;;;;2.80;2.08;;;12.70;99.90;;;;;;5115070;28;20420;-59
2023/05/14 05:27:08;;;;;;;2.47;1.80;;;12.80;99.90;;;;;;5115114;28;20851;-57
2023/05/14 05:29:36;;;;;;;2.22;1.90;;;13.00;99.90;;;;;;5114559;28;20423;-55
2023/05/14 05:32:03;;;;;;;2.22;1.70;;;13.00;99.90;;;;;;5114554;28;20436;-57
2023/05/14 05:34:30;;;;;;;2.70;2.10;;;12.90;99.90;;;;;;5114616;28;20477;-57
2023/05/14 05:36:57;;;;;;;3.15;1.92;;;13.00;99.90;;;;;;5114417;28;20847;-59
2023/05/14 05:39:26;;;;;;;2.22;1.80;;;12.80;99.90;;;;;;5113299;28;20420;-60
2023/05/14 05:41:54;;;;;;;2.80;2.30;;;12.80;99.90;;;;;;5113862;28;20428;-57
2023/05/14 05:44:21;;;;;;;3.08;1.73;;;12.80;99.90;;;;;;5114284;28;20424;-58
2023/05/14 05:46:49;;;;;;;2.30;1.90;;;12.70;99.90;;;;;;5113222;28;20430;-55
2023/05/14 05:49:16;;;;;;;3.10;1.70;;;12.70;99.90;;;;;;5116433;28;20432;-59
2023/05/14 05:51:43;;;;;;;3.25;2.40;;;12.70;99.90;;;;;;5117264;28;20526;-57
2023/05/14 05:54:10;;;;;;;3.30;2.40;;;12.60;99.90;;;;;;5119266;28;20419;-57
2023/05/14 05:56:39;;;;;;;2.97;2.30;;;12.70;99.90;;;;;;5118461;28;20434;-56
2023/05/14 05:59:06;;;;;;;4.05;1.90;;;12.60;99.90;;;;;;5116794;28;20415;-57
2023/05/14 06:01:33;;;;;;;3.38;2.40;;;12.60;99.90;;;;;;5117465;28;20424;-56
2023/05/14 06:04:00;;;;;;;2.50;2.10;;;12.70;99.90;;;;;;5115966;28;20415;-57
2023/05/14 06:06:28;;;;;;;3.72;2.47;;;12.70;99.90;;;;;;5117507;28;20478;-56
2023/05/14 06:08:55;;;;;;;2.45;1.95;;;12.90;99.90;;;;;;5116515;28;20424;-60
2023/05/14 06:11:22;;;;;;;2.42;1.92;;;13.10;99.90;;;;;;5114833;28;20451;-56
2023/05/14 06:13:51;;;;;;;3.40;2.45;;;13.00;99.90;;;;;;5115436;28;20691;-57
2023/05/14 06:16:18;;;;;;;2.65;1.70;;;13.10;99.90;;;;;;5115046;28;20454;-55
2023/05/14 06:18:47;;;;;;;2.35;1.80;;;13.00;99.90;;;;;;5114634;28;20424;-57
2023/05/14 06:21:14;;;;;;;2.40;1.88;;;13.10;99.90;;;;;;5118062;28;20416;-57
2023/05/14 06:23:41;;;;;;;3.42;2.22;;;13.20;99.90;;;;;;5117914;28;20431;-57
2023/05/14 06:26:08;;;;;;;2.78;2.47;;;13.30;99.90;;;;;;5117941;28;20428;-57
2023/05/14 06:28:35;;;;;;;3.00;2.10;;;13.40;99.90;;;;;;5117596;28;20426;-57
2023/05/14 06:31:03;;;;;;;3.20;2.20;;;13.40;99.90;;;;;;5116796;28;20500;-56
2023/05/14 06:33:30;;;;;;;3.20;1.52;;;13.40;99.90;;;;;;5118295;28;20415;-57
2023/05/14 06:35:58;;;;;;;2.60;1.73;;;13.40;99.90;;;;;;5117633;28;20427;-57
2023/05/14 06:38:25;;;;;;;3.50;1.70;;;13.60;99.90;;;;;;5117568;28;20419;-56
2023/05/14 06:40:52;;;;;;;2.28;1.95;;;13.60;99.90;;;;;;5117322;28;20428;-57
2023/05/14 06:43:20;;;;;;;2.08;1.67;;;13.70;99.90;;;;;;5115546;28;20886;-56
2023/05/14 06:45:49;;;;;;;2.30;1.70;;;13.70;99.90;;;;;;5117020;28;20523;-57
2023/05/14 06:48:18;;;;;;;2.50;2.05;;;13.80;99.90;;;;;;5114392;28;20448;-57
2023/05/14 06:50:46;;;;;;;4.75;2.40;;;13.60;99.90;;;;;;5114250;28;20424;-57
2023/05/14 06:53:13;;;;;;;2.85;2.05;;;13.50;99.90;;;;;;5113491;28;20442;-58
2023/05/14 06:55:40;;;;;;;3.20;2.08;;;13.40;99.90;;;;;;5111598;28;20423;-58
2023/05/14 06:58:08;;;;;;;2.55;2.05;;;13.30;99.90;;;;;;5110612;28;20421;-58
2023/05/14 07:00:35;;;;;;;2.60;2.30;;;13.40;99.90;;;;;;5110814;28;20424;-57
2023/05/14 07:03:02;;;;;;;2.75;2.20;;;13.30;99.90;;;;;;5112527;28;20420;-57
2023/05/14 07:05:30;;;;;;;2.20;1.70;;;13.40;99.90;;;;;;5113692;28;20408;-56
2023/05/14 07:07:58;;;;;;;2.00;1.80;;;13.60;99.90;;;;;;5112208;28;20420;-57
2023/05/14 07:10:25;;;;;;;4.57;2.20;;;13.70;99.90;;;;;;5113108;28;20424;-57
2023/05/14 07:12:52;;;;;;;3.08;2.30;;;13.80;99.90;;;;;;5113050;28;20859;-55
2023/05/14 07:15:20;;;;;;;2.70;2.10;;;13.70;99.90;;;;;;5113535;28;20424;-58
2023/05/14 07:17:47;;;;;;;3.10;2.40;;;13.50;99.90;;;;;;5115303;28;20492;-57
2023/05/14 07:20:14;;;;;;;3.17;2.20;;;13.50;99.90;;;;;;5116089;28;20697;-58
2023/05/14 07:22:42;;;;;;;2.50;2.00;;;13.60;99.90;;;;;;5116239;28;20424;-57
2023/05/14 07:25:09;;;;;;;2.40;2.10;;;13.70;99.90;;;;;;5116029;28;20423;-57
2023/05/14 07:27:36;;;;;;;3.85;2.33;;;13.60;99.90;;;;;;5116374;28;20431;-57
2023/05/14 07:30:04;;;;;;;3.50;2.55;;;13.70;99.90;;;;;;5116397;28;20461;-58
2023/05/14 07:32:31;;;;;;;2.40;2.00;;;13.80;99.90;;;;;;5116440;28;20873;-58
2023/05/14 07:34:58;;;;;;;4.40;2.60;;;13.90;99.90;;;;;;5116986;28;20700;-56
2023/05/14 07:37:25;;;;;;;2.90;2.30;;;14.10;99.90;;;;;;5116925;28;20457;-57
2023/05/14 07:39:55;;;;;;;3.70;2.60;;;14.20;99.90;;;;;;5115967;28;20511;-57
2023/05/14 07:42:22;;;;;;;3.15;2.30;;;14.10;99.90;;;;;;5114618;28;20474;-57
2023/05/14 07:44:50;;;;;;;4.60;2.67;;;13.90;99.90;;;;;;5114618;28;20416;-56
2023/05/14 07:47:17;;;;;;;2.72;2.10;;;13.80;99.90;;;;;;5114753;28;20431;-59
2023/05/14 07:49:44;;;;;;;3.42;2.33;;;13.90;99.90;;;;;;5112484;28;20416;-59
2023/05/14 07:52:11;;;;;;;2.93;1.80;;;14.30;99.90;;;;;;5114039;28;20424;-57
2023/05/14 07:54:38;;;;;;;2.10;1.80;;;14.20;99.90;;;;;;5114463;28;20427;-57
2023/05/14 07:57:07;;;;;;;3.38;1.85;;;14.50;99.90;;;;;;5113730;28;20420;-57
2023/05/14 07:59:34;;;;;;;3.27;2.40;;;14.80;99.90;;;;;;5111789;28;20469;-56
2023/05/14 08:02:01;;;;;;;2.40;1.90;;;15.10;99.90;;;;;;5111664;28;20420;-57
2023/05/14 08:04:28;;;;;;;2.60;2.20;;;14.90;99.90;;;;;;5112172;28;20533;-57
2023/05/14 08:06:57;;;;;;;2.20;1.90;;;14.90;99.90;;;;;;5113395;28;20420;-57
2023/05/14 08:09:24;;;;;;;2.58;1.73;;;15.20;99.90;;;;;;5112671;28;20474;-57
2023/05/14 08:11:51;;;;;;;2.72;2.10;;;15.50;99.90;;;;;;5113554;28;20751;-57
2023/05/14 08:14:20;;;;;;;2.65;2.15;;;15.70;99.90;;;;;;5113858;28;20443;-57
2023/05/14 08:16:47;;;;;;;3.30;2.03;;;15.70;99.90;;;;;;5114476;28;20428;-57
2023/05/14 08:19:15;;;;;;;3.80;2.40;;;15.50;99.90;;;;;;5114065;28;20823;-57
2023/05/14 08:21:42;;;;;;;1.88;1.60;;;15.30;99.90;;;;;;5113491;28;20423;-57
2023/05/14 08:24:10;;;;;;;2.63;1.90;;;15.40;99.90;;;;;;5112717;28;20420;-57
2023/05/14 08:26:37;;;;;;;2.78;2.20;;;15.60;99.90;;;;;;5112484;28;20485;-57
2023/05/14 08:29:04;;;;;;;3.20;2.40;;;15.30;99.90;;;;;;5112605;28;20495;-57
2023/05/14 08:31:33;;;;;;;2.65;2.28;;;15.20;99.90;;;;;;5113312;28;20432;-57
2023/05/14 08:34:00;;;;;;;2.42;2.10;;;15.40;99.90;;;;;;5113802;28;20488;-57
2023/05/14 08:36:27;;;;;;;2.90;1.80;;;15.50;99.90;;;;;;5115117;28;20633;-58
2023/05/14 08:38:54;;;;;;;3.05;1.90;;;15.60;99.90;;;;;;5113552;28;20436;-58
2023/05/14 08:41:21;;;;;;;2.80;1.70;;;15.90;99.90;;;;;;5114355;28;20427;-58
2023/05/14 08:43:57;;;;;;;4.35;2.17;;;16.10;99.90;;;;;;5113484;28;20424;-58
2023/05/14 08:46:26;;;;;;;2.40;1.88;;;16.40;99.90;;;;;;5113245;28;20527;-57
2023/05/14 08:49:01;;;;;;;2.90;2.17;;;16.70;99.90;;;;;;5113544;28;20420;-58
2023/05/14 08:51:28;;;;;;;2.50;1.90;;;16.80;99.90;;;;;;5109864;28;20525;-57
2023/05/14 08:53:57;;;;;;;2.87;2.40;;;17.00;99.90;;;;;;5110866;28;20486;-57
2023/05/14 08:56:26;;;;;;;3.25;2.42;;;17.00;99.90;;;;;;5110072;28;20739;-57
2023/05/14 08:58:53;;;;;;;2.00;1.60;;;16.80;99.90;;;;;;5112906;28;20415;-58
2023/05/14 09:01:20;;;;;;;3.20;2.10;;;16.90;99.90;;;;;;5113703;28;20420;-59
2023/05/14 09:03:48;;;;;;;2.10;1.90;;;16.90;99.90;;;;;;5112557;28;20420;-59
2023/05/14 09:06:18;;;;;;;4.13;2.33;;;17.10;99.90;;;;;;5113344;28;20459;-58
2023/05/14 09:08:46;;;;;;;2.70;2.30;;;17.30;99.90;;;;;;5114071;28;20416;-57
2023/05/14 09:11:13;;;;;;;3.00;2.20;;;17.60;99.90;;;;;;5112857;28;20424;-58
2023/05/14 09:13:40;;;;;;;3.33;2.65;;;17.80;99.90;;;;;;5114733;28;20833;-58
2023/05/14 09:16:07;;;;;;;2.55;2.10;;;18.00;99.90;;;;;;5115191;28;20713;-59
2023/05/14 09:18:36;;;;;;;3.85;2.50;;;18.10;99.90;;;;;;5113676;28;20428;-58
2023/05/14 09:21:04;;;;;;;2.92;2.50;;;18.10;99.90;;;;;;5111935;28;20543;-58
2023/05/14 09:23:34;;;;;;;3.30;2.40;;;18.00;99.90;;;;;;5115221;28;20416;-58
2023/05/14 09:26:05;;;;;;;3.10;2.80;;;18.10;99.90;;;;;;5121530;28;20460;-59
2023/05/14 09:28:32;;;;;;;2.85;2.35;;;18.30;99.90;;;;;;5121423;28;20451;-59
2023/05/14 09:30:59;;;;;;;2.50;2.30;;;18.50;99.90;;;;;;5120139;28;20432;-59
2023/05/14 09:33:27;;;;;;;4.07;2.60;;;18.80;99.90;;;;;;5118840;28;21022;-59
2023/05/14 09:35:58;;;;;;;3.10;2.60;;;18.90;99.90;;;;;;5117622;28;20424;-58
2023/05/14 09:38:29;;;;;;;2.83;2.53;;;18.70;99.90;;;;;;5118800;28;20420;-59
2023/05/14 09:40:58;;;;;;;3.70;2.50;;;18.70;99.90;;;;;;5117059;28;20428;-58
2023/05/14 09:43:25;;;;;;;3.40;2.72;;;18.80;99.90;;;;;;5118559;28;20427;-58
2023/05/14 09:45:52;;;;;;;3.10;2.25;;;18.70;99.90;;;;;;5117114;28;20919;-59
2023/05/14 09:48:21;;;;;;;2.85;1.83;;;18.50;99.90;;;;;;5117881;28;20471;-58
2023/05/14 09:50:48;;;;;;;3.15;2.67;;;18.50;99.90;;;;;;5118074;28;20434;-58
2023/05/14 09:53:16;;;;;;;2.20;1.83;;;18.50;99.90;;;;;;5120183;28;20420;-59
2023/05/14 09:55:43;;;;;;;2.10;1.90;;;18.70;99.90;;;;;;5121173;28;20524;-60
2023/05/14 09:58:14;;;;;;;1.90;1.38;;;18.90;99.90;;;;;;5118781;28;20846;-59
2023/05/14 10:00:46;;;;;;;2.20;1.50;;;19.00;99.90;;;;;;5117279;28;20587;-59
2023/05/14 10:03:14;;;;;;;2.00;1.80;;;19.10;99.90;;;;;;5117637;28;20511;-59
2023/05/14 10:05:42;;;;;;;2.20;2.00;;;19.30;99.90;;;;;;5117853;28;20412;-59
2023/05/14 10:08:14;;;;;;;2.40;1.90;;;19.20;99.90;;;;;;5117723;28;20862;-59
2023/05/14 10:10:41;;;;;;;1.80;1.58;;;19.10;99.90;;;;;;5117917;28;20415;-59
2023/05/14 10:13:18;;;;;;;2.60;1.80;;;19.20;99.90;;;;;;5116158;28;20502;-59
2023/05/14 10:15:48;;;;;;;3.30;1.90;;;19.20;99.90;;;;;;5101877;28;20444;-58
2023/05/14 10:18:19;;;;;;;2.38;1.90;;;19.00;99.90;;;;;;5097452;28;20839;-59
2023/05/14 10:20:51;;;;;;;2.10;1.40;;;19.10;99.90;;;;;;5096542;28;20433;-59
2023/05/14 10:23:18;;;;;;;2.10;1.77;;;18.90;99.90;;;;;;5096918;28;20410;-59
2023/05/14 10:25:46;;;;;;;2.15;1.85;;;18.90;99.90;;;;;;5096403;28;20430;-59
2023/05/14 10:28:13;;;;;;;2.80;1.80;;;18.80;99.90;;;;;;5096440;28;20418;-59
2023/05/14 10:30:44;;;;;;;2.60;1.95;;;18.70;99.90;;;;;;5096796;28;20417;-59
2023/05/14 10:33:14;;;;;;;2.20;1.70;;;18.60;99.90;;;;;;5097339;28;20429;-59
2023/05/14 10:35:57;;;;;;;2.10;1.80;;;18.70;99.90;;;;;;5110282;28;20909;-58
2023/05/14 10:38:27;;;;;;;2.22;1.63;;;18.90;99.90;;;;;;5114378;28;20432;-57
2023/05/14 10:41:02;;;;;;;2.80;1.70;;;19.00;99.90;;;;;;5108313;28;20428;-58
2023/05/14 10:43:31;;;;;;;2.20;2.00;;;18.90;99.90;;;;;;5114095;28;20460;-57
2023/05/14 10:46:01;;;;;;;2.00;1.60;;;18.80;99.90;;;;;;5112969;28;20440;-57
2023/05/14 10:48:28;;;;;;;2.20;2.00;;;18.70;99.90;;;;;;5109810;28;20432;-57
2023/05/14 10:50:57;;;;;;;2.40;1.60;;;18.80;99.90;;;;;;5105979;28;20852;-58
2023/05/14 10:53:33;;;;;;;2.90;2.40;;;18.80;99.90;;;;;;5111893;28;20428;-59
2023/05/14 10:56:04;;;;;;;2.20;1.40;;;18.60;99.90;;;;;;5106425;28;20505;-59
2023/05/14 10:58:32;;;;;;;1.90;1.70;;;18.80;99.90;;;;;;5104152;28;20719;-57
2023/05/14 11:01:01;;;;;;;1.70;1.20;;;19.10;99.90;;;;;;5114021;28;20432;-58
2023/05/14 11:03:30;;;;;;;1.52;1.23;;;18.90;99.90;;;;;;5112117;28;20859;-58
2023/05/14 11:05:59;;;;;;;1.90;1.50;;;19.20;99.90;;;;;;5113927;28;20463;-59
2023/05/14 11:08:27;;;;;;;1.77;1.30;;;19.30;99.90;;;;;;5112377;28;20435;-60
2023/05/14 11:10:55;;;;;;;1.70;1.38;;;19.50;99.90;;;;;;5109329;28;20471;-60
2023/05/14 11:13:22;;;;;;;2.37;1.50;;;19.40;99.90;;;;;;5112494;28;20511;-59
2023/05/14 11:15:50;;;;;;;1.98;1.60;;;19.40;99.90;;;;;;5101414;28;20902;-59
2023/05/14 11:18:28;;;;;;;2.70;1.88;;;18.90;99.90;;;;;;5113632;28;20416;-59
2023/05/14 11:20:59;;;;;;;2.40;1.85;;;18.90;99.90;;;;;;5099795;28;20485;-59
2023/05/14 11:23:26;;;;;;;2.27;1.70;;;18.60;99.90;;;;;;5115101;28;20492;-57
2023/05/14 11:25:54;;;;;;;2.20;1.90;;;18.50;99.90;;;;;;5104140;28;20428;-58
2023/05/14 11:28:22;;;;;;;1.90;1.60;;;18.30;99.90;;;;;;5099190;28;20845;-58
2023/05/14 11:30:50;;;;;;;1.83;1.63;;;18.30;99.90;;;;;;5100383;28;20733;-58
2023/05/14 11:33:17;;;;;;;2.00;1.58;;;18.40;99.90;;;;;;5101626;28;20743;-58
2023/05/14 11:35:46;;;;;;;2.20;1.60;;;18.60;99.90;;;;;;5110372;28;20428;-59
2023/05/14 11:38:17;;;;;;;1.90;1.40;;;18.90;99.90;;;;;;5102546;28;20418;-58
2023/05/14 11:40:53;;;;;;;1.60;1.30;;;19.30;99.90;;;;;;5095663;28;20425;-58
2023/05/14 11:43:22;;;;;;;2.35;1.42;;;20.00;99.90;;;;;;5116092;28;20420;-59
2023/05/14 11:45:51;;;;;;;1.40;1.10;;;20.80;99.90;;;;;;5113672;28;20472;-59
2023/05/14 11:48:18;;;;;;;1.60;1.23;;;21.10;99.90;;;;;;5112373;28;20492;-58
2023/05/14 11:50:48;;;;;;;1.80;1.50;;;21.30;99.90;;;;;;5113856;28;20840;-59
2023/05/14 11:53:20;;;;;;;1.40;1.15;;;20.90;99.90;;;;;;5111937;28;20427;-57
2023/05/14 11:55:48;;;;;;;1.60;1.40;;;20.40;99.90;;;;;;5112828;28;20424;-58
2023/05/14 11:58:17;;;;;;;1.80;1.25;;;20.00;99.90;;;;;;5113107;28;20424;-58
2023/05/14 12:00:45;;;;;;;1.65;1.10;;;19.40;99.90;;;;;;5115648;28;20430;-59
2023/05/14 12:03:14;;;;;;;1.90;1.40;;;19.40;99.90;;;;;;5111059;28;20745;-58
2023/05/14 12:05:54;;;;;;;2.30;1.40;;;19.30;99.90;;;;;;5112060;28;20420;-57
2023/05/14 12:08:23;;;;;;;1.40;1.20;;;19.40;99.90;;;;;;5111133;28;20427;-58
2023/05/14 12:10:50;;;;;;;2.00;1.30;;;19.50;99.90;;;;;;5110235;28;20420;-58
2023/05/14 12:13:19;;;;;;;1.30;1.13;;;19.70;99.90;;;;;;5110956;28;20421;-57
2023/05/14 12:15:47;;;;;;;2.40;1.10;;;20.20;99.90;;;;;;5112700;28;20423;-59
2023/05/14 12:18:14;;;;;;;1.50;1.30;;;20.50;99.90;;;;;;5114191;28;20547;-59
2023/05/14 12:20:47;;;;;;;1.70;1.30;;;20.70;99.90;;;;;;5100544;28;20422;-58
2023/05/14 12:23:14;;;;;;;1.90;1.20;;;21.10;99.90;;;;;;5090326;28;20410;-58
2023/05/14 12:25:50;;;;;;;1.85;1.20;;;21.20;99.90;;;;;;5091375;28;20506;-58
2023/05/14 12:28:18;;;;;;;2.20;1.10;;;20.80;99.90;;;;;;5093793;28;20510;-58
2023/05/14 12:30:45;;;;;;;2.10;1.00;;;21.00;99.90;;;;;;5092981;28;20444;-58
2023/05/14 12:33:13;;;;;;;1.50;1.20;;;21.00;99.90;;;;;;5093625;28;20803;-58
2023/05/14 12:35:40;;;;;;;2.00;1.20;;;21.40;99.90;;;;;;5093022;28;20479;-58
2023/05/14 12:38:07;;;;;;;1.30;1.00;;;21.70;99.90;;;;;;5094978;28;20829;-57
2023/05/14 12:40:35;;;;;;;1.50;1.30;;;21.50;99.90;;;;;;5095644;28;20425;-58
2023/05/14 12:43:03;;;;;;;1.30;1.20;;;21.10;99.90;;;;;;5094995;28;20424;-57
2023/05/14 12:45:31;;;;;;;1.60;1.10;;;20.60;99.90;;;;;;5094672;28;20418;-57
2023/05/14 12:47:58;;;;;;;1.80;1.58;;;20.80;99.90;;;;;;5095266;28;20417;-57
2023/05/14 12:50:25;;;;;;;1.53;1.17;;;20.60;99.90;;;;;;5094411;28;20421;-58
2023/05/14 12:52:52;;;;;;;1.30;1.10;;;20.40;99.90;;;;;;5094489;28;20422;-58